Time;durP1;ratioP1;P1;durP2;ratioP2;P2;SDS_P1;SDS_P2;PMS_P1;PMS_P2;Temp;Humidity;BMP_temperature;BMP_pressure;BME280_temperature;BME280_humidity;BME280_pressure;Samples;Min_cycle;Max_cycle;Signal;HPM_P1;HPM_P2
2022/08/06 00:00:22;;;;;;;1.40;1.00;;;15.70;99.90;;;15.79;70.62;101526.09;5037378;28;21034;-74
2022/08/06 00:02:56;;;;;;;1.40;1.00;;;15.70;99.90;;;15.92;70.22;101533.38;5039662;28;20456;-75
2022/08/06 00:05:26;;;;;;;1.40;1.30;;;15.80;99.90;;;15.91;70.02;101537.16;5034972;28;20449;-74
2022/08/06 00:08:05;;;;;;;1.50;1.20;;;15.80;99.90;;;15.86;70.24;101546.00;5035532;28;20483;-74
2022/08/06 00:10:34;;;;;;;1.90;1.40;;;15.70;99.90;;;15.88;70.09;101552.06;5036168;28;21016;-74
2022/08/06 00:13:04;;;;;;;1.67;1.40;;;15.80;83.60;;;15.89;69.94;101567.38;5035946;28;20432;-74
2022/08/06 00:15:43;;;;;;;2.60;1.33;;;15.80;99.90;;;15.72;70.65;101569.00;5042906;28;20452;-74
2022/08/06 00:18:32;;;;;;;1.97;1.27;;;15.70;99.90;;;15.66;70.60;101580.78;5034729;28;20464;-74
2022/08/06 00:21:01;;;;;;;1.37;1.10;;;15.60;99.90;;;15.65;70.47;101584.53;5036547;28;20901;-73
2022/08/06 00:23:51;;;;;;;1.57;1.43;;;15.60;99.90;;;15.64;70.51;101593.78;5045832;28;20424;-74
2022/08/06 00:26:24;;;;;;;1.33;1.10;;;15.50;99.90;;;15.49;70.95;101604.13;5040624;28;20429;-75
2022/08/06 00:28:57;;;;;;;1.30;1.00;;;15.40;96.10;;;15.53;70.98;101602.69;5036860;28;20482;-73
2022/08/06 00:31:28;;;;;;;2.40;1.30;;;15.40;99.90;;;15.50;71.32;101594.88;5031940;28;20486;-74
2022/08/06 00:34:02;;;;;;;3.03;1.43;;;15.40;99.90;;;15.52;71.13;101595.53;5040245;28;20451;-75
2022/08/06 00:36:33;;;;;;;1.90;1.47;;;15.40;99.90;;;15.57;71.23;101599.28;5038173;28;20896;-74
2022/08/06 00:39:08;;;;;;;2.93;1.33;;;15.50;98.50;;;15.41;71.45;101590.72;5041259;28;20439;-74
2022/08/06 00:41:40;;;;;;;1.20;1.00;;;15.40;57.10;;;15.37;71.38;101593.06;5035551;28;20471;-74
2022/08/06 00:44:14;;;;;;;2.30;1.47;;;15.30;28.90;;;15.41;71.28;101591.56;5041297;28;20450;-75
2022/08/06 00:47:00;;;;;;;1.70;1.10;;;15.30;45.40;;;15.35;71.52;101594.31;5037641;28;20445;-74
2022/08/06 00:49:32;;;;;;;1.47;1.37;;;15.30;38.00;;;15.21;71.96;101594.38;5029885;28;20423;-74
2022/08/06 00:52:17;;;;;;;3.27;1.20;;;15.20;40.10;;;15.16;71.88;101599.63;5029141;28;20423;-74
2022/08/06 00:54:47;;;;;;;1.60;1.30;;;15.10;21.20;;;15.17;71.76;101604.03;5039696;28;20920;-74
2022/08/06 00:57:18;;;;;;;2.63;1.30;;;15.10;2.90;;;15.19;71.42;101604.69;5033284;28;20558;-73
2022/08/06 00:59:50;;;;;;;1.53;1.00;;;15.10;1.00;;;15.03;71.58;101602.41;5039791;28;20430;-74
2022/08/06 01:02:21;;;;;;;2.07;1.37;;;15.00;1.00;;;14.99;71.52;101606.63;5035539;28;20430;-74
2022/08/06 01:04:54;;;;;;;1.30;1.10;;;14.90;1.00;;;14.93;71.71;101618.38;5029882;28;20867;-73
2022/08/06 01:07:43;;;;;;;2.93;1.20;;;14.90;8.50;;;14.95;72.66;101616.28;5038526;28;20465;-72
2022/08/06 01:10:21;;;;;;;3.73;1.23;;;14.80;13.60;;;15.22;71.20;101620.59;5032775;28;20403;-73
2022/08/06 01:12:58;;;;;;;2.27;0.90;;;15.00;16.30;;;14.99;71.14;101625.72;5047427;28;20784;-73
2022/08/06 01:15:34;;;;;;;1.53;1.00;;;14.90;1.00;;;14.93;71.45;101623.81;5029061;28;21055;-74
2022/08/06 01:18:32;;;;;;;1.10;0.90;;;14.90;1.00;;;14.79;71.55;101617.56;5029495;28;20595;-73
2022/08/06 01:21:24;;;;;;;2.27;1.10;;;14.70;1.00;;;14.75;71.08;101627.22;5035142;28;20529;-73
2022/08/06 01:24:51;;;;;;;1.60;1.10;;;14.70;7.00;;;14.79;70.96;101633.09;5027396;28;20979;-74
2022/08/06 01:27:39;;;;;;;1.50;1.17;;;14.70;1.00;;;14.78;72.05;101631.41;5028770;28;20460;-73
2022/08/06 01:30:17;;;;;;;2.17;1.40;;;14.60;2.20;;;14.70;71.10;101628.91;5031657;28;20467;-74
2022/08/06 01:33:03;;;;;;;1.20;1.00;;;14.70;1.00;;;14.61;71.63;101635.63;5036320;28;20414;-73
2022/08/06 01:35:52;;;;;;;1.60;0.90;;;14.60;1.00;;;14.54;71.73;101634.78;5032215;28;20434;-73
2022/08/06 01:38:31;;;;;;;1.17;1.07;;;14.50;9.50;;;14.56;71.71;101621.78;5031839;28;20452;-73
2022/08/06 01:41:09;;;;;;;1.77;0.90;;;14.50;2.50;;;14.64;71.56;101625.13;5028570;28;20468;-73
2022/08/06 01:43:43;;;;;;;1.27;1.17;;;14.50;18.30;;;14.58;71.48;101625.97;5036528;28;20437;-73
2022/08/06 01:46:36;;;;;;;1.60;1.00;;;14.50;1.00;;;14.44;71.98;101624.31;5014097;28;20422;-73
2022/08/06 01:49:11;;;;;;;3.20;0.90;;;14.40;2.50;;;14.62;71.66;101626.41;5037081;28;20406;-73
2022/08/06 01:52:01;;;;;;;1.23;0.80;;;14.50;14.20;;;14.62;71.44;101631.84;5031333;28;20418;-73
2022/08/06 01:54:48;;;;;;;1.93;1.13;;;14.50;12.40;;;14.41;72.00;101629.34;5032142;28;20432;-74
2022/08/06 01:57:24;;;;;;;1.23;0.73;;;14.40;1.00;;;14.44;72.34;101631.63;5042928;28;20475;-74
2022/08/06 02:00:16;;;;;;;2.13;1.17;;;14.40;14.90;;;14.28;72.55;101632.88;5037650;28;20882;-74
2022/08/06 02:02:50;;;;;;;1.53;1.10;;;14.30;18.70;;;14.38;72.63;101635.22;5048247;28;20434;-73
2022/08/06 02:05:24;;;;;;;3.90;1.00;;;14.30;13.60;;;14.63;71.53;101634.34;5046558;28;20805;-73
2022/08/06 02:08:02;;;;;;;1.20;0.80;;;14.50;7.40;;;14.92;71.40;101637.66;5052398;28;20467;-75
2022/08/06 02:10:54;;;;;;;1.33;1.00;;;14.70;16.60;;;14.59;71.70;101635.81;5044558;28;20394;-74
2022/08/06 02:13:25;;;;;;;1.30;1.00;;;14.60;1.00;;;14.30;72.88;101639.78;5037210;28;20452;-74
2022/08/06 02:16:14;;;;;;;1.40;1.00;;;14.30;23.20;;;14.29;72.84;101643.53;5038325;28;20476;-73
2022/08/06 02:18:48;;;;;;;1.10;0.80;;;14.30;19.20;;;14.02;74.16;101639.13;5041597;28;20452;-74
2022/08/06 02:21:23;;;;;;;1.40;1.10;;;14.10;46.40;;;14.06;73.97;101636.81;5039108;28;20457;-73
2022/08/06 02:24:06;;;;;;;1.40;1.03;;;14.10;49.40;;;13.88;74.92;101634.69;5033633;28;20438;-72
2022/08/06 02:26:40;;;;;;;2.07;1.30;;;13.90;77.40;;;13.99;74.84;101630.53;5038278;28;20792;-72
2022/08/06 02:29:17;;;;;;;3.17;0.90;;;13.90;96.40;;;13.97;74.89;101633.47;5038965;28;20434;-73
2022/08/06 02:31:48;;;;;;;1.70;1.07;;;13.90;91.30;;;14.03;74.47;101643.53;5027735;28;20465;-74
2022/08/06 02:34:21;;;;;;;2.10;1.03;;;14.00;99.90;;;13.87;75.29;101649.34;5039037;28;20447;-73
2022/08/06 02:37:08;;;;;;;1.87;0.90;;;13.90;95.50;;;13.89;75.21;101655.44;5040304;28;20461;-72
2022/08/06 02:39:44;;;;;;;2.37;1.13;;;13.90;99.90;;;13.77;76.10;101648.88;5037982;28;20451;-74
2022/08/06 02:42:28;;;;;;;1.60;1.20;;;13.70;99.90;;;13.81;75.93;101661.03;5031523;28;20473;-74
2022/08/06 02:45:04;;;;;;;2.90;1.30;;;13.70;99.90;;;13.77;76.12;101668.78;5030483;28;20396;-74
2022/08/06 02:47:43;;;;;;;1.53;1.00;;;13.70;99.90;;;13.84;76.40;101671.53;5011350;28;20884;-74
2022/08/06 02:50:35;;;;;;;1.63;1.33;;;13.70;99.90;;;13.75;76.16;101672.72;5030788;28;20427;-71
2022/08/06 02:53:09;;;;;;;1.93;1.30;;;13.70;99.90;;;13.79;76.46;101674.03;5039706;28;20449;-73
2022/08/06 02:55:57;;;;;;;1.20;1.00;;;13.70;99.90;;;13.85;75.25;101679.47;5039750;28;20498;-74
2022/08/06 02:58:34;;;;;;;2.80;1.10;;;13.80;99.90;;;13.81;75.54;101683.63;5032852;28;20478;-73
2022/08/06 03:01:12;;;;;;;1.67;1.17;;;13.80;99.90;;;13.80;75.23;101692.00;5042598;28;20488;-73
2022/08/06 03:03:56;;;;;;;1.37;1.20;;;13.80;99.90;;;13.91;75.75;101694.13;5043118;28;20433;-73
2022/08/06 03:06:33;;;;;;;2.17;1.47;;;13.80;99.90;;;14.09;75.25;101690.81;5031647;28;20895;-73
2022/08/06 03:09:05;;;;;;;1.50;0.90;;;13.90;99.90;;;13.83;74.88;101683.44;5036365;28;20434;-73
2022/08/06 03:11:40;;;;;;;2.00;1.90;;;13.90;99.90;;;13.84;74.79;101702.28;5035470;28;20442;-74
2022/08/06 03:14:13;;;;;;;2.90;0.93;;;13.80;99.90;;;13.68;75.23;101699.09;5038542;28;20443;-73
2022/08/06 03:17:05;;;;;;;1.33;1.10;;;13.70;99.90;;;13.94;74.96;101705.44;5037488;28;20839;-74
2022/08/06 03:19:38;;;;;;;1.63;0.80;;;13.90;99.90;;;13.83;74.30;101702.50;5029427;28;20420;-74
2022/08/06 03:22:29;;;;;;;1.90;1.10;;;13.80;99.90;;;14.07;74.26;101703.81;5043126;28;20454;-74
2022/08/06 03:25:09;;;;;;;1.20;1.00;;;13.90;99.90;;;13.97;73.68;101704.22;5050605;28;20430;-74
2022/08/06 03:27:41;;;;;;;1.63;0.97;;;13.90;99.90;;;13.68;74.61;101721.69;5042671;28;20790;-73
2022/08/06 03:30:15;;;;;;;1.53;1.07;;;13.70;83.80;;;13.74;74.32;101717.31;5044028;28;20489;-74
2022/08/06 03:33:03;;;;;;;1.30;0.80;;;13.70;81.60;;;13.70;74.34;101732.38;5035430;28;20773;-73
2022/08/06 03:35:44;;;;;;;1.17;0.93;;;13.70;70.90;;;13.48;74.94;101731.63;5036569;28;20546;-74
2022/08/06 03:38:21;;;;;;;1.17;0.77;;;13.50;99.00;;;13.31;75.91;101741.97;5036259;28;20456;-74
2022/08/06 03:40:59;;;;;;;1.50;0.90;;;13.40;99.90;;;13.44;76.14;101752.09;5041552;28;20534;-74
2022/08/06 03:43:30;;;;;;;1.30;0.93;;;13.30;99.90;;;13.62;74.83;101754.28;5038004;28;20847;-74
2022/08/06 03:46:27;;;;;;;1.97;1.20;;;13.50;99.90;;;13.30;76.02;101750.34;5035300;28;20495;-74
2022/08/06 03:49:02;;;;;;;2.87;0.87;;;13.30;99.90;;;13.45;75.63;101749.19;5035582;28;20448;-75
2022/08/06 03:51:37;;;;;;;1.30;1.20;;;13.40;99.90;;;13.71;75.18;101763.94;5046149;28;20434;-74
2022/08/06 03:54:27;;;;;;;4.07;1.27;;;13.60;99.90;;;13.97;74.84;101769.53;5034084;28;20419;-74
2022/08/06 03:57:09;;;;;;;1.70;1.20;;;13.70;99.90;;;13.91;73.26;101765.72;5029344;28;20466;-74
2022/08/06 03:59:43;;;;;;;2.30;1.27;;;13.80;99.90;;;13.90;73.44;101779.53;5033045;28;20448;-74
2022/08/06 04:02:32;;;;;;;1.47;1.00;;;13.80;99.90;;;13.81;73.43;101769.84;5033992;28;20472;-74
2022/08/06 04:05:17;;;;;;;1.20;0.83;;;13.80;99.90;;;14.12;73.60;101775.66;5033384;28;20451;-74
2022/08/06 04:07:56;;;;;;;1.67;1.07;;;13.80;99.90;;;14.54;70.96;101784.59;5035202;28;20493;-74
2022/08/06 04:10:29;;;;;;;2.43;1.17;;;14.10;99.90;;;15.19;68.92;101775.63;5013267;28;20447;-74
2022/08/06 04:13:08;;;;;;;1.93;1.10;;;14.50;99.90;;;14.72;69.95;101779.38;5036480;28;20438;-74
2022/08/06 04:15:58;;;;;;;2.07;1.03;;;14.50;91.20;;;14.15;72.02;101788.84;5030017;28;20527;-73
2022/08/06 04:18:38;;;;;;;1.97;0.83;;;14.20;99.90;;;14.32;71.65;101784.72;5029002;28;20455;-72
2022/08/06 04:21:15;;;;;;;1.40;0.90;;;14.20;99.90;;;14.53;72.37;101796.50;5033280;28;20478;-73
2022/08/06 04:24:07;;;;;;;2.03;1.10;;;14.30;99.90;;;15.09;71.88;101789.66;5038657;28;20431;-73
2022/08/06 04:26:40;;;;;;;1.53;1.20;;;14.60;99.90;;;15.68;66.87;101791.50;5027774;28;20424;-73
2022/08/06 04:29:16;;;;;;;1.50;1.23;;;15.20;99.90;;;14.98;68.80;101803.91;5042143;28;20450;-72
2022/08/06 04:31:49;;;;;;;1.57;1.17;;;14.90;99.90;;;15.09;71.60;101797.84;5033328;28;20482;-74
2022/08/06 04:34:40;;;;;;;1.53;0.90;;;14.80;99.90;;;15.89;66.46;101804.84;5039444;28;20444;-74
2022/08/06 04:37:30;;;;;;;1.20;1.10;;;15.40;99.90;;;15.05;68.34;101804.78;5032606;28;20997;-74
2022/08/06 04:40:12;;;;;;;3.10;1.03;;;15.00;99.90;;;15.72;66.54;101819.19;5035014;28;21016;-73
2022/08/06 04:42:47;;;;;;;2.70;1.37;;;15.40;99.90;;;15.51;67.44;101807.47;5035969;28;20463;-74
2022/08/06 04:45:20;;;;;;;5.00;1.00;;;15.30;99.90;;;14.90;68.45;101814.19;5032474;28;20459;-73
2022/08/06 04:48:12;;;;;;;5.57;1.63;;;14.90;99.90;;;14.76;69.48;101824.25;5038476;28;20529;-74
2022/08/06 04:50:49;;;;;;;2.37;1.13;;;14.60;99.90;;;15.97;67.23;101828.38;5042124;28;20435;-73
2022/08/06 04:53:23;;;;;;;1.60;0.90;;;15.20;99.90;;;15.49;67.46;101834.09;5030281;28;20494;-73
2022/08/06 04:56:13;;;;;;;3.23;1.30;;;15.20;99.90;;;15.41;66.93;101841.66;5024738;28;20940;-73
2022/08/06 04:58:47;;;;;;;3.53;1.20;;;15.10;99.90;;;15.62;66.74;101841.47;5072357;23;20561;-73
2022/08/06 05:01:16;;;;;;;1.40;1.00;;;15.20;99.90;;;15.91;66.57;101845.59;5033037;28;20420;-70
2022/08/06 05:03:47;;;;;;;2.33;1.20;;;15.50;1.00;;;16.14;66.30;101839.63;5020305;28;20434;-72
2022/08/06 05:06:47;;;;;;;1.30;0.90;;;15.70;99.90;;;16.68;64.81;101847.38;5013842;28;20921;-71
2022/08/06 05:09:22;;;;;;;2.37;1.33;;;16.10;99.90;;;16.02;65.35;101858.59;5046323;28;20503;-71
2022/08/06 05:12:22;;;;;;;1.70;1.03;;;15.90;99.90;;;16.56;64.25;101855.41;5037427;28;20428;-71
2022/08/06 05:15:02;;;;;;;4.40;1.30;;;16.00;1.00;;;16.05;64.46;101853.53;5044609;28;20404;-71
2022/08/06 05:17:37;;;;;;;1.40;1.00;;;15.90;10.70;;;16.49;64.36;101860.06;5033523;28;20505;-72
2022/08/06 05:20:16;;;;;;;5.17;1.07;;;16.00;1.00;;;15.42;66.92;101865.16;5038422;28;20441;-72
2022/08/06 05:23:04;;;;;;;1.70;1.30;;;15.40;1.00;;;15.79;67.44;101875.44;5053164;28;20463;-71
2022/08/06 05:25:47;;;;;;;6.73;1.40;;;15.30;1.00;;;16.10;66.34;101880.19;5052902;28;20440;-71
2022/08/06 05:28:25;;;;;;;1.93;1.53;;;15.50;7.50;;;15.49;66.40;101885.09;5046611;28;20425;-71
2022/08/06 05:30:56;;;;;;;4.53;1.30;;;15.20;1.00;;;14.82;68.74;101891.53;5049122;28;20437;-72
2022/08/06 05:33:30;;;;;;;1.40;1.23;;;14.80;1.00;;;14.45;70.13;101897.47;5052748;28;20428;-71
2022/08/06 05:36:09;;;;;;;1.73;1.10;;;14.60;25.70;;;14.33;70.99;101900.75;5050348;28;20402;-71
2022/08/06 05:38:47;;;;;;;1.53;1.27;;;14.30;11.20;;;14.21;71.53;101907.81;5052972;28;20455;-71
2022/08/06 05:41:29;;;;;;;7.03;1.60;;;14.20;1.00;;;14.41;72.83;101904.38;5052901;28;20934;-72
2022/08/06 05:44:07;;;;;;;3.57;1.60;;;14.20;17.50;;;14.49;71.99;101904.19;5049077;28;20776;-71
2022/08/06 05:46:41;;;;;;;1.57;1.10;;;14.30;5.00;;;14.62;70.35;101904.28;5053443;28;20813;-73
2022/08/06 05:49:18;;;;;;;1.87;1.17;;;14.40;1.00;;;14.77;70.20;101902.19;5053195;28;20460;-72
2022/08/06 05:52:15;;;;;;;1.50;1.00;;;14.50;1.00;;;14.84;69.49;101903.06;5051417;28;20493;-71
2022/08/06 05:54:55;;;;;;;1.73;1.63;;;14.70;1.00;;;14.70;69.98;101917.69;5053075;28;20441;-73
2022/08/06 05:57:34;;;;;;;5.23;1.37;;;14.70;1.00;;;15.09;69.14;101920.53;5049382;28;20830;-72
2022/08/06 06:00:16;;;;;;;5.83;1.70;;;14.80;1.00;;;15.54;67.38;101923.53;5053366;28;20510;-72
2022/08/06 06:03:09;;;;;;;2.23;1.10;;;15.20;1.00;;;15.48;66.94;101922.47;5054147;28;20891;-73
2022/08/06 06:05:57;;;;;;;2.10;1.40;;;15.40;1.00;;;15.66;66.46;101924.56;5054854;28;20435;-72
2022/08/06 06:08:45;;;;;;;4.13;1.50;;;15.50;1.00;;;15.28;67.61;101934.38;5044822;28;20429;-72
2022/08/06 06:11:28;;;;;;;2.20;1.03;;;15.30;1.00;;;15.13;68.05;101940.88;5054278;28;20431;-71
2022/08/06 06:14:40;;;;;;;3.43;2.20;;;15.10;1.00;;;15.21;67.85;101943.41;5053041;28;20427;-72
2022/08/06 06:17:55;;;;;;;4.90;2.07;;;15.20;1.00;;;15.22;67.95;101928.72;5052385;28;20453;-71
2022/08/06 06:20:41;;;;;;;1.63;1.27;;;15.20;1.00;;;15.51;67.26;101937.59;5052392;28;20434;-71
2022/08/06 06:23:39;;;;;;;3.50;1.70;;;15.40;1.00;;;15.37;67.20;101938.59;5048686;28;20488;-71
2022/08/06 06:26:25;;;;;;;2.57;1.37;;;15.30;1.00;;;15.60;67.31;101934.44;5052184;28;20951;-71
2022/08/06 06:29:14;;;;;;;3.23;1.73;;;15.50;1.00;;;15.99;65.42;101936.28;5052343;28;21046;-71
2022/08/06 06:32:01;;;;;;;5.20;1.70;;;15.80;1.00;;;16.35;65.02;101940.41;5052000;28;20438;-70
2022/08/06 06:34:49;;;;;;;2.03;1.20;;;16.10;1.00;;;16.14;64.63;101933.31;5041453;28;20399;-70
2022/08/06 06:37:32;;;;;;;10.17;6.30;;;16.10;99.90;;;16.38;64.73;101934.50;5050932;28;20406;-70
2022/08/06 06:40:33;;;;;;;2.50;1.30;;;16.30;1.00;;;16.71;63.23;101943.44;5056271;28;20427;-70
2022/08/06 06:43:09;;;;;;;5.80;3.53;;;16.50;1.00;;;16.72;63.16;101949.75;5043419;28;20427;-71
2022/08/06 06:45:51;;;;;;;2.60;1.93;;;16.60;69.70;;;16.61;63.56;101953.16;5056336;28;21022;-71
2022/08/06 06:48:46;;;;;;;4.00;1.83;;;16.50;99.90;;;16.79;63.22;101961.50;5048790;28;20447;-71
2022/08/06 06:51:27;;;;;;;1.50;1.10;;;16.60;99.90;;;17.13;61.66;101965.75;5047950;28;20423;-72
2022/08/06 06:54:32;;;;;;;2.40;1.70;;;16.90;1.00;;;17.15;61.64;101966.34;5053576;28;20474;-71
2022/08/06 06:57:10;;;;;;;2.53;1.77;;;17.00;1.00;;;17.32;61.46;101967.53;5053812;28;20431;-71
2022/08/06 06:59:46;;;;;;;4.37;1.90;;;17.20;1.00;;;17.37;61.11;101970.44;5056035;28;20425;-70
2022/08/06 07:02:40;;;;;;;4.43;1.70;;;17.30;1.00;;;17.58;60.53;101966.47;5055327;28;20504;-71
2022/08/06 07:05:12;;;;;;;2.40;1.60;;;17.40;37.70;;;17.50;60.44;101962.13;5055441;28;20445;-71
2022/08/06 07:07:48;;;;;;;4.17;1.97;;;17.40;59.90;;;17.44;60.07;101976.69;5049225;28;20458;-72
2022/08/06 07:10:21;;;;;;;3.43;1.60;;;17.40;58.90;;;17.37;60.36;101967.69;5046593;28;20437;-71
2022/08/06 07:12:51;;;;;;;2.87;1.83;;;17.40;58.00;;;17.57;60.20;101973.84;5054398;28;20467;-72
2022/08/06 07:15:24;;;;;;;2.00;1.30;;;17.50;58.90;;;17.16;61.21;101976.25;5055291;28;20489;-71
2022/08/06 07:17:55;;;;;;;4.57;1.70;;;17.20;58.20;;;17.35;60.75;101972.53;5054513;28;20566;-73
2022/08/06 07:20:45;;;;;;;6.33;1.67;;;17.30;59.00;;;17.45;60.36;101975.63;5055009;28;20431;-72
2022/08/06 07:23:18;;;;;;;5.43;1.60;;;17.40;57.40;;;17.39;60.45;101981.97;5055151;28;20443;-73
2022/08/06 07:26:09;;;;;;;4.63;1.57;;;17.40;57.60;;;17.69;60.12;101988.53;5038603;28;20406;-70
2022/08/06 07:28:44;;;;;;;2.60;1.83;;;17.50;57.70;;;17.60;59.37;101981.66;5054376;28;20469;-72
2022/08/06 07:31:17;;;;;;;4.63;1.20;;;17.60;53.40;;;17.45;60.45;101985.72;5054279;28;20435;-72
2022/08/06 07:33:47;;;;;;;2.90;1.67;;;17.50;55.70;;;17.91;59.17;101999.09;5054535;28;20463;-72
2022/08/06 07:36:40;;;;;;;3.30;1.10;;;17.70;54.30;;;18.11;58.72;101994.25;5039977;28;20930;-72
2022/08/06 07:39:29;;;;;;;2.07;1.50;;;17.90;52.90;;;18.37;58.33;101994.00;5052316;28;20425;-73
2022/08/06 07:42:08;;;;;;;3.27;1.37;;;18.10;51.50;;;18.53;57.09;101993.44;5052756;28;20413;-72
2022/08/06 07:44:45;;;;;;;2.10;1.30;;;18.30;47.00;;;18.85;56.21;102004.22;5054448;28;20491;-70
2022/08/06 07:47:37;;;;;;;1.47;1.10;;;18.60;44.50;;;19.05;55.83;102002.06;5053829;28;20414;-73
2022/08/06 07:50:27;;;;;;;3.33;1.30;;;18.80;42.60;;;18.52;56.66;102005.44;5052742;28;20409;-74
2022/08/06 07:52:57;;;;;;;3.37;1.20;;;18.50;40.10;;;18.74;55.63;102005.00;5051736;28;20492;-72
2022/08/06 07:55:31;;;;;;;1.77;1.03;;;18.60;39.70;;;18.63;55.33;102012.94;5054267;28;20545;-72
2022/08/06 07:58:09;;;;;;;2.43;0.83;;;18.60;37.10;;;18.70;55.19;102009.25;5049790;28;20445;-72
2022/08/06 08:00:42;;;;;;;1.17;0.80;;;18.60;36.70;;;18.61;55.62;102015.06;5054772;28;20431;-72
2022/08/06 08:06:28;;;;;;;2.60;1.20;;;18.70;35.20;;;19.32;53.62;102006.13;5005091;28;20425;-73
2022/08/06 08:09:07;;;;;;;1.40;1.00;;;19.00;33.10;;;19.63;52.91;102006.97;5051492;28;20462;-73
2022/08/06 08:11:43;;;;;;;3.30;1.13;;;19.40;31.30;;;19.58;52.38;102020.56;5054743;28;20405;-72
2022/08/06 08:14:32;;;;;;;3.93;1.30;;;19.40;29.10;;;19.47;52.34;102017.53;5047541;28;20470;-71
2022/08/06 08:17:01;;;;;;;3.73;1.20;;;19.40;27.50;;;19.52;52.37;102016.84;5053807;28;20443;-72
2022/08/06 08:19:34;;;;;;;1.77;1.07;;;19.40;27.60;;;19.72;52.16;102022.03;5053102;28;20730;-72
2022/08/06 08:22:07;;;;;;;2.80;1.30;;;19.60;27.30;;;20.28;50.99;102027.00;5054194;28;20770;-72
2022/08/06 08:24:39;;;;;;;2.53;1.20;;;19.90;26.20;;;20.59;50.62;102023.03;5053990;28;20444;-72
2022/08/06 08:27:10;;;;;;;2.00;1.10;;;20.20;26.10;;;20.10;48.66;102014.19;5053676;28;20451;-72
2022/08/06 08:29:51;;;;;;;3.50;1.13;;;20.00;20.70;;;19.82;48.26;102020.38;5045074;28;20440;-73
2022/08/06 08:32:25;;;;;;;1.50;0.90;;;19.80;18.90;;;19.88;48.38;102022.19;5046828;28;20478;-69
2022/08/06 08:34:54;;;;;;;1.43;0.90;;;19.80;18.30;;;19.41;48.22;102026.66;5054243;28;20426;-71
2022/08/06 08:37:25;;;;;;;4.10;0.97;;;19.60;16.90;;;20.02;48.42;102022.78;5053153;28;20439;-72
2022/08/06 08:40:00;;;;;;;1.10;0.70;;;19.80;18.00;;;20.37;46.82;102022.84;5052539;28;20417;-72
2022/08/06 08:42:40;;;;;;;3.30;1.10;;;20.10;15.80;;;20.24;47.68;102025.78;5054144;28;20443;-72
2022/08/06 08:45:11;;;;;;;1.60;1.10;;;20.10;16.70;;;20.21;47.87;102023.50;5054682;28;20478;-71
2022/08/06 08:47:48;;;;;;;1.93;1.10;;;20.00;16.70;;;19.40;49.96;102041.50;5054961;28;20429;-74
2022/08/06 08:50:31;;;;;;;2.20;0.80;;;19.50;17.40;;;19.40;49.57;102036.00;5052915;28;20423;-72
2022/08/06 08:53:07;;;;;;;1.40;0.80;;;19.40;17.40;;;19.61;47.77;102029.16;5058019;28;20820;-72
2022/08/06 08:55:37;;;;;;;1.43;0.97;;;19.40;16.00;;;20.18;46.66;102033.09;5056801;28;20860;-73
2022/08/06 08:58:27;;;;;;;2.37;1.53;;;19.80;14.70;;;20.83;45.75;102031.00;5054454;28;20957;-72
2022/08/06 09:01:11;;;;;;;2.80;1.23;;;20.20;14.70;;;19.85;47.45;102039.13;5055216;28;20742;-71
2022/08/06 09:04:04;;;;;;;2.33;1.10;;;19.90;13.50;;;19.86;48.08;102031.72;5051933;28;20406;-72
2022/08/06 09:06:34;;;;;;;1.13;0.80;;;19.80;14.70;;;20.18;47.23;102032.25;5054143;28;20445;-73
2022/08/06 09:09:07;;;;;;;3.23;1.30;;;19.90;14.20;;;20.22;46.87;102033.44;5053549;28;20433;-74
2022/08/06 09:11:44;;;;;;;1.83;0.80;;;20.00;13.50;;;20.05;46.99;102032.47;5053417;28;20886;-72
2022/08/06 09:14:35;;;;;;;1.57;1.00;;;19.90;13.20;;;20.07;46.85;102036.66;5043966;28;20426;-73
2022/08/06 09:17:07;;;;;;;1.93;0.93;;;19.90;13.30;;;20.49;45.66;102039.31;5043438;28;20834;-73
2022/08/06 09:19:40;;;;;;;5.00;0.73;;;20.20;12.30;;;20.57;45.07;102036.22;5054346;28;20943;-72
2022/08/06 09:22:10;;;;;;;1.67;1.10;;;20.40;10.70;;;20.91;45.04;102028.97;5056051;28;20417;-72
2022/08/06 09:24:40;;;;;;;2.00;0.97;;;20.60;11.00;;;20.94;44.85;102028.47;5056058;28;20441;-73
2022/08/06 09:27:12;;;;;;;2.00;0.90;;;20.70;10.70;;;21.25;44.15;102031.63;5056219;28;20437;-72
2022/08/06 09:30:05;;;;;;;1.97;1.10;;;20.90;10.00;;;21.21;44.08;102040.59;5052500;28;20431;-72
2022/08/06 09:32:56;;;;;;;2.77;1.30;;;20.80;9.70;;;20.25;45.46;102042.03;5054819;28;20402;-72
2022/08/06 09:35:58;;;;;;;4.23;1.73;;;20.30;9.00;;;20.47;45.71;102044.22;5041451;28;20417;-73
2022/08/06 09:38:29;;;;;;;2.03;1.00;;;20.30;9.90;;;20.63;45.11;102046.22;5042668;28;20451;-72
2022/08/06 09:41:06;;;;;;;2.57;1.30;;;20.40;9.80;;;21.11;44.71;102043.97;5053338;28;20443;-72
2022/08/06 09:43:44;;;;;;;2.50;1.57;;;20.80;9.90;;;21.45;43.64;102044.94;5051336;28;20504;-72
2022/08/06 09:46:43;;;;;;;2.37;1.30;;;21.00;8.70;;;21.53;43.22;102050.06;5054371;28;20470;-73
2022/08/06 09:49:19;;;;;;;1.70;0.83;;;21.30;7.80;;;21.49;43.54;102045.31;5054980;28;20972;-73
2022/08/06 09:52:19;;;;;;;2.80;1.10;;;21.30;8.00;;;21.65;42.55;102047.22;5062258;28;20455;-72
2022/08/06 09:54:50;;;;;;;1.30;0.70;;;21.40;6.70;;;21.65;42.87;102050.81;5064342;28;20488;-72
2022/08/06 09:57:27;;;;;;;3.27;1.27;;;21.40;6.20;;;20.97;42.06;102050.84;5064865;28;20432;-72
2022/08/06 10:00:08;;;;;;;1.40;0.70;;;21.10;4.60;;;20.62;43.07;102050.88;5060744;28;20863;-72
2022/08/06 10:02:46;;;;;;;2.03;1.00;;;20.60;4.90;;;20.38;43.95;102054.75;5056933;28;20418;-72
2022/08/06 10:05:20;;;;;;;1.33;0.90;;;20.30;6.00;;;20.08;45.56;102054.81;5048924;28;20561;-73
2022/08/06 10:08:06;;;;;;;1.57;0.90;;;20.10;7.50;;;19.85;46.78;102054.75;5061995;28;20433;-71
2022/08/06 10:10:45;;;;;;;6.00;1.20;;;19.80;9.00;;;19.45;47.62;102065.53;5055419;28;20444;-73
2022/08/06 10:13:23;;;;;;;1.03;0.77;;;19.40;10.10;;;19.52;47.84;102061.59;5071147;28;20405;-73
2022/08/06 10:15:55;;;;;;;1.60;0.80;;;19.40;10.70;;;19.73;47.63;102062.16;5071210;28;20416;-72
2022/08/06 10:18:37;;;;;;;3.40;1.20;;;19.60;10.80;;;20.26;46.17;102062.13;5070961;28;20434;-73
2022/08/06 10:21:29;;;;;;;2.00;0.87;;;19.90;9.90;;;21.38;43.32;102047.03;5062895;28;20517;-73
2022/08/06 10:24:12;;;;;;;2.70;1.00;;;20.70;8.10;;;21.60;41.88;102052.66;5063807;28;20405;-72
2022/08/06 10:26:54;;;;;;;2.40;0.90;;;21.10;5.60;;;22.00;41.81;102053.41;5063837;28;20483;-73
2022/08/06 10:29:27;;;;;;;2.10;1.00;;;21.50;5.40;;;21.88;41.61;102052.59;5056668;28;20454;-72
2022/08/06 10:32:03;;;;;;;2.30;1.03;;;21.60;4.40;;;21.73;41.95;102040.50;5051242;28;20759;-73
2022/08/06 10:34:45;;;;;;;1.20;0.70;;;21.50;4.30;;;21.52;41.87;102047.56;5049337;28;20436;-73
2022/08/06 10:37:17;;;;;;;2.50;1.10;;;21.30;4.00;;;21.05;43.06;102050.47;5055713;28;20471;-72
2022/08/06 10:40:10;;;;;;;3.40;1.00;;;21.10;4.60;;;21.06;42.67;102054.88;5052302;28;20522;-70
2022/08/06 10:42:39;;;;;;;2.10;1.13;;;21.00;4.70;;;21.43;41.93;102047.13;5055462;28;20913;-74
2022/08/06 10:45:11;;;;;;;4.70;1.07;;;21.20;4.30;;;21.81;40.92;102048.34;5055086;28;20829;-73
2022/08/06 10:47:48;;;;;;;1.30;0.80;;;21.40;3.40;;;22.03;39.37;102052.88;5050038;28;20458;-72
2022/08/06 10:50:40;;;;;;;1.30;0.70;;;21.70;1.30;;;22.68;38.15;102046.72;5053083;28;20993;-72
2022/08/06 10:53:24;;;;;;;1.10;0.70;;;22.10;1.00;;;23.12;37.55;102049.53;5054977;28;20828;-72
2022/08/06 10:56:15;;;;;;;1.27;0.80;;;22.50;1.00;;;22.44;39.16;102056.31;5051327;28;20476;-72
2022/08/06 10:58:54;;;;;;;2.13;1.33;;;22.40;1.00;;;22.88;39.42;102049.78;5053761;28;20466;-72
2022/08/06 11:01:36;;;;;;;2.63;1.73;;;22.50;1.00;;;22.46;39.45;102048.63;5049363;28;20398;-73
2022/08/06 11:04:47;;;;;;;1.60;0.77;;;22.40;1.00;;;21.32;40.60;102055.41;5053587;28;20518;-72
2022/08/06 11:07:47;;;;;;;1.67;0.70;;;21.50;1.00;;;20.52;41.28;102047.09;5043503;28;20433;-71
2022/08/06 11:11:03;;;;;;;1.40;0.80;;;20.80;1.00;;;20.88;40.81;102044.03;5051385;28;20435;-72
2022/08/06 11:13:41;;;;;;;3.07;1.00;;;20.70;1.00;;;21.45;38.69;102033.09;5050521;28;20431;-72